This is the latest recevied weather packets stored in our database for station/object OE-11121. If no packets are shown the sender has not sent any weather packets the latest 10 day(s).
| Time | Temp. | Humidity | Pressure | Rain* | Wind** | Luminosity | Snow |
|---|---|---|---|---|---|---|---|
| 1788036933 | 18.33° C | 71% | 1016.4 hPa | 0 mm | - | 0 W/m² | - |
| 1788036106 | 18.89° C | 69% | 1016.3 hPa | 0 mm | - | 0 W/m² | - |
| 1788035732 | 18.89° C | 69% | 1016.2 hPa | 0 mm | - | 0 W/m² | - |
| 1788035133 | 19.44° C | 66% | 1016.1 hPa | 0 mm | - | 0 W/m² | - |
| 1788034306 | 18.33° C | 73% | 1016.2 hPa | 0 mm | - | 0 W/m² | - |
| 1788033933 | 18.89° C | 72% | 1016.2 hPa | 0 mm | - | 0 W/m² | - |
| 1788033333 | 18.89° C | 69% | 1015.9 hPa | 0 mm | - | 0 W/m² | - |
| 1788032506 | 19.44° C | 67% | 1015.6 hPa | 0 mm | - | 0 W/m² | - |
| 1788032133 | 19.44° C | 69% | 1015.4 hPa | 0 mm | - | 0 W/m² | - |
| 1788031533 | 20° C | 66% | 1015.2 hPa | 0 mm | - | 0 W/m² | - |
| 1788030706 | 20° C | 66% | 1015.1 hPa | 0 mm | - | 0 W/m² | - |
| 1788030333 | 20° C | 64% | 1015 hPa | 0 mm | - | 0 W/m² | - |
| 1788029733 | 20.56° C | 60% | 1014.8 hPa | 0 mm | - | 0 W/m² | - |
| 1788028906 | 20.56° C | 58% | 1014.5 hPa | 0 mm | - | 0 W/m² | - |
| 1788028533 | 21.11° C | 57% | 1014.4 hPa | 0 mm | - | 0 W/m² | - |
| 1788027933 | 21.11° C | 59% | 1014.3 hPa | 0 mm | - | 0 W/m² | - |
| 1788027106 | 21.67° C | 58% | 1014.2 hPa | 0 mm | - | 0 W/m² | - |
| 1788026733 | 22.22° C | 53% | 1013.8 hPa | 0 mm | - | 12 W/m² | - |
| 1788026133 | 21.67° C | 60% | 1013.7 hPa | 0 mm | - | 12 W/m² | - |
| 1788025306 | 22.22° C | 55% | 1013.6 hPa | 0 mm | - | 36 W/m² | - |
| 1788024933 | 22.78° C | 52% | 1013.6 hPa | 0 mm | - | 36 W/m² | - |
| 1788024333 | 23.33° C | 48% | 1013.3 hPa | 0 mm | - | 60 W/m² | - |
| 1788023506 | 23.33° C | 46% | 1013.3 hPa | 0 mm | - | 108 W/m² | - |
| 1788023132 | 23.89° C | 44% | 1013.1 hPa | 0 mm | - | 180 W/m² | - |
| 1788022533 | 24.44° C | 43% | 1012.9 hPa | 0 mm | - | 204 W/m² | - |
* Rain latest hour (hover to see other rain measurements)
** Current wind speed in m/s (hover to see current wind gust speed)